GRU weather

Guarulhos - Governador André Franco Montoro International Airport
São Paulo, São Paulo, Brazil

Public forecast

Using degrees Celsius for public forecast. Weather courtesy of forecast.io.

Current aviation weather report (METAR) for Guarulhos - Governador André Franco Montoro International Airport

Retrieved 2019/11/18 05:00 UTC (1 minute ago):

SBGR 180500Z 11006KT 9999 OVC011 17/15 Q1016

Aviation forecast (TAF) for Guarulhos - Governador André Franco Montoro International Airport

Retrieved 2019-11-18 00:00 UTC (5 hours ago):

TAF SBGR 172130Z 1800/1906 15007KT 9999 BKN015 TN15/1809Z TX25/1817Z BECMG 1800/1802 10005KT BECMG 1802/1804 BKN008 BECMG 1810/1812 BKN020 BECMG 1814/1816 SCT030 BECMG 1816/1818 14008KT BECMG 1819/1821 BKN013 BECMG 1900/1902 11005KT BKN010 RMK PGL